createdAt,value
2023-05-10T00:00:44.416Z,100771.75
2023-05-10T00:06:04.660Z,100764.03
2023-05-10T00:11:25.715Z,100767.56
2023-05-10T00:16:46.033Z,100776.31
2023-05-10T00:22:06.746Z,100762.75
2023-05-10T00:27:27.129Z,100757.72
2023-05-10T00:32:49.185Z,100756.81
2023-05-10T00:38:09.709Z,100760.28
2023-05-10T00:43:30.928Z,100753.53
2023-05-10T00:48:51.367Z,100751.03
2023-05-10T00:54:13.293Z,100749.25
2023-05-10T00:59:34.074Z,100745.81
2023-05-10T01:04:55.042Z,100746.75
2023-05-10T01:10:16.013Z,100731.13
2023-05-10T01:15:37.771Z,100723.34
2023-05-10T01:21:09.874Z,100719.91
2023-05-10T01:27:04.524Z,100710.47
2023-05-10T01:32:46.513Z,100714.03
2023-05-10T01:38:32.479Z,100714.13
2023-05-10T01:44:02.160Z,100706.44
2023-05-10T01:49:29.963Z,100706.63
2023-05-10T01:54:56.300Z,100703.25
2023-05-10T02:00:19.027Z,100699.84
2023-05-10T02:05:42.282Z,100691.31
2023-05-10T02:11:04.713Z,100693.84
2023-05-10T02:16:28.151Z,100684.31
2023-05-10T02:21:52.199Z,100692.03
2023-05-10T02:27:13.592Z,100697.19
2023-05-10T02:32:36.460Z,100692.09
2023-05-10T02:37:59.447Z,100694.72
2023-05-10T02:43:24.057Z,100691.31
2023-05-10T02:48:44.882Z,100693.09
2023-05-10T02:54:13.049Z,100685.28
2023-05-10T02:59:33.689Z,100691.25
2023-05-10T03:04:54.588Z,100687.88
2023-05-10T03:10:16.831Z,100688.75
2023-05-10T03:16:10.095Z,100686.19
2023-05-10T03:21:32.738Z,100692.38
2023-05-10T03:26:58.008Z,100684.81
2023-05-10T03:32:18.923Z,100688.47
2023-05-10T03:37:40.782Z,100691.19
2023-05-10T03:43:01.404Z,100692.22
2023-05-10T03:48:22.676Z,100694.00
2023-05-10T03:53:43.088Z,100695.06
2023-05-10T03:59:08.207Z,100695.16
2023-05-10T04:04:28.697Z,100694.25
2023-05-10T04:09:49.026Z,100686.53
2023-05-10T04:15:09.760Z,100695.94
2023-05-10T04:20:34.097Z,100690.06
2023-05-10T04:26:00.871Z,100693.44
2023-05-10T04:31:21.605Z,100689.84
2023-05-10T04:36:42.245Z,100693.31
2023-05-10T04:42:04.247Z,100690.72
2023-05-10T04:47:24.586Z,100697.69
2023-05-10T04:52:45.217Z,100706.16
2023-05-10T05:06:04.229Z,100707.06
2023-05-10T05:11:26.401Z,100714.78
2023-05-10T05:16:47.084Z,100711.34
2023-05-10T05:22:08.472Z,100707.72
2023-05-10T05:27:28.935Z,100710.88
2023-05-10T05:32:49.364Z,100717.66
2023-05-10T05:38:09.761Z,100709.81
2023-05-10T05:43:30.492Z,100714.81
2023-05-10T05:48:50.863Z,100728.50
2023-05-10T05:54:11.676Z,100742.94
2023-05-10T05:59:32.386Z,100732.53
2023-05-10T06:04:53.075Z,100733.97
2023-05-10T06:10:13.876Z,100737.34
2023-05-10T06:15:34.313Z,100732.06
2023-05-10T06:20:55.003Z,100733.94
2023-05-10T06:26:15.699Z,100741.72
2023-05-10T06:31:36.389Z,100742.06
2023-05-10T06:36:56.438Z,100742.06
2023-05-10T06:42:16.907Z,100748.56
2023-05-10T06:47:41.557Z,100750.13
2023-05-10T06:53:05.265Z,100756.75
2023-05-10T06:58:26.200Z,100759.94
2023-05-10T07:03:46.927Z,100763.03
2023-05-10T07:09:08.679Z,100753.66
2023-05-10T07:14:29.218Z,100764.34
2023-05-10T07:19:50.047Z,100774.41
2023-05-10T07:25:10.742Z,100768.53
2023-05-10T07:30:31.659Z,100771.66
2023-05-10T07:35:52.634Z,100777.50
2023-05-10T07:41:13.531Z,100766.66
2023-05-10T07:46:34.134Z,100762.09
2023-05-10T07:51:54.897Z,100765.34
2023-05-10T07:57:18.309Z,100766.78
2023-05-10T08:02:39.110Z,100779.09
2023-05-10T08:08:00.486Z,100772.75
2023-05-10T08:13:21.063Z,100781.75
2023-05-10T08:18:42.444Z,100778.59
2023-05-10T08:24:03.099Z,100782.13
2023-05-10T08:29:23.392Z,100787.66
2023-05-10T08:34:44.235Z,100795.22
2023-05-10T08:40:05.144Z,100798.50
2023-05-10T08:45:32.011Z,100793.25
2023-05-10T08:50:58.577Z,100808.09
2023-05-10T08:56:20.859Z,100812.16
2023-05-10T09:01:45.083Z,100821.97
2023-05-10T09:07:07.173Z,100823.44
2023-05-10T09:12:28.303Z,100830.00
2023-05-10T09:17:50.553Z,100842.38
2023-05-10T09:23:11.221Z,100839.34
2023-05-10T09:28:50.681Z,100845.13
2023-05-10T09:34:11.556Z,100847.41
2023-05-10T09:39:39.264Z,100839.63
2023-05-10T09:45:07.632Z,100850.81
2023-05-10T09:50:28.862Z,100848.59
2023-05-10T09:55:51.462Z,100861.34
2023-05-10T10:01:13.175Z,100859.81
2023-05-10T10:06:40.858Z,100870.00
2023-05-10T10:12:03.034Z,100876.69
2023-05-10T10:17:28.762Z,100874.66
2023-05-10T10:22:49.686Z,100878.94
2023-05-10T10:28:33.342Z,100873.69
2023-05-10T10:34:06.396Z,100875.53
2023-05-10T10:39:27.660Z,100888.38
2023-05-10T10:44:48.568Z,100899.91
2023-05-10T10:50:09.776Z,100896.53
2023-05-10T10:55:31.315Z,100890.03
2023-05-10T11:01:11.239Z,100901.78
2023-05-10T11:06:36.408Z,100895.75
2023-05-10T11:11:57.255Z,100904.38
2023-05-10T11:17:26.011Z,100911.78
2023-05-10T11:22:54.038Z,100914.41
2023-05-10T11:28:15.245Z,100920.72
2023-05-10T11:33:49.025Z,100921.34
2023-05-10T11:39:10.827Z,100924.38
2023-05-10T11:44:34.433Z,100928.72
2023-05-10T11:49:54.937Z,100940.69
2023-05-10T11:55:15.396Z,100946.09
2023-05-10T12:00:36.126Z,100947.88
2023-05-10T12:05:57.472Z,100940.69
2023-05-10T12:11:18.667Z,100963.47
2023-05-10T12:16:39.793Z,100965.16
2023-05-10T12:22:00.322Z,100963.41
2023-05-10T12:27:21.615Z,100976.00
2023-05-10T12:32:43.124Z,100989.38
2023-05-10T12:38:27.966Z,100982.03
2023-05-10T12:43:49.173Z,101002.56
2023-05-10T12:49:10.149Z,100999.31
2023-05-10T12:54:30.596Z,100997.63
2023-05-10T12:59:51.740Z,101000.28
2023-05-10T13:05:14.197Z,101007.94
2023-05-10T13:10:34.973Z,101010.28
2023-05-10T13:15:55.627Z,101011.78
2023-05-10T13:21:16.289Z,101022.44
2023-05-10T13:26:37.979Z,101012.41
2023-05-10T13:32:00.435Z,101022.03
2023-05-10T13:37:21.137Z,101025.44
2023-05-10T13:42:41.936Z,101032.66
2023-05-10T13:48:02.773Z,101019.66
2023-05-10T13:53:23.357Z,101028.13
2023-05-10T13:58:44.184Z,101031.44
2023-05-10T14:04:04.810Z,101025.44
2023-05-10T14:09:25.771Z,101034.63
2023-05-10T14:14:46.614Z,101033.47
2023-05-10T14:20:08.067Z,101041.06
2023-05-10T14:25:29.043Z,101048.47
2023-05-10T14:30:49.633Z,101037.44
2023-05-10T14:36:10.217Z,101040.19
2023-05-10T14:41:31.276Z,101041.16
2023-05-10T14:46:51.960Z,101046.47
2023-05-10T14:52:13.294Z,101052.28
2023-05-10T14:57:34.432Z,101051.91
2023-05-10T15:02:55.128Z,101055.00
2023-05-10T15:08:16.515Z,101061.34
2023-05-10T15:13:37.505Z,101068.00
2023-05-10T15:18:58.551Z,101072.28
2023-05-10T15:24:19.158Z,101072.66
2023-05-10T15:29:39.933Z,101081.53
2023-05-10T15:35:00.325Z,101086.91
2023-05-10T15:40:20.783Z,101096.50
2023-05-10T15:45:42.502Z,101100.72
2023-05-10T15:51:02.925Z,101101.00
2023-05-10T15:56:23.553Z,101106.53
2023-05-10T16:01:44.449Z,101107.69
2023-05-10T16:07:05.283Z,101114.81
2023-05-10T16:12:26.305Z,101114.13
2023-05-10T16:17:46.788Z,101128.72
2023-05-10T16:23:08.034Z,101111.56
2023-05-10T16:28:28.791Z,101120.97
2023-05-10T16:33:49.639Z,101132.28
2023-05-10T16:39:10.138Z,101126.41
2023-05-10T16:44:31.055Z,101145.41
2023-05-10T16:49:51.499Z,101132.78
2023-05-10T16:55:12.344Z,101139.88
2023-05-10T17:00:33.383Z,101153.69
2023-05-10T17:05:53.930Z,101155.41
2023-05-10T17:11:14.599Z,101157.84
2023-05-10T17:16:35.784Z,101167.38
2023-05-10T17:21:56.774Z,101172.59
2023-05-10T17:27:17.343Z,101187.25
2023-05-10T17:32:37.689Z,101188.19
2023-05-10T17:37:58.328Z,101207.19
2023-05-10T17:43:18.863Z,101205.63
2023-05-10T17:48:39.840Z,101207.50
2023-05-10T17:53:59.976Z,101217.06
2023-05-10T17:59:21.030Z,101210.34
2023-05-10T18:04:41.265Z,101221.44
2023-05-10T18:10:01.942Z,101226.53
2023-05-10T18:15:22.294Z,101227.38
2023-05-10T18:20:43.418Z,101235.03
2023-05-10T18:26:03.775Z,101247.88
2023-05-10T18:31:24.680Z,101245.34
2023-05-10T18:36:45.364Z,101249.72
2023-05-10T18:42:05.909Z,101260.09
2023-05-10T18:47:26.756Z,101269.59
2023-05-10T18:52:47.431Z,101283.34
2023-05-10T18:58:08.105Z,101283.38
2023-05-10T19:03:30.002Z,101276.59
2023-05-10T19:08:50.815Z,101292.06
2023-05-10T19:14:11.410Z,101310.94
2023-05-10T19:19:32.094Z,101312.75
2023-05-10T19:24:53.499Z,101312.03
2023-05-10T19:30:14.611Z,101320.63
2023-05-10T19:35:35.222Z,101330.09
2023-05-10T19:40:59.551Z,101339.56
2023-05-10T19:46:20.443Z,101331.91
2023-05-10T19:51:41.265Z,101345.59
2023-05-10T19:57:02.695Z,101340.56
2023-05-10T20:02:23.390Z,101347.44
2023-05-10T20:07:43.842Z,101355.13
2023-05-10T20:13:04.205Z,101356.88
2023-05-10T20:18:25.975Z,101363.69
2023-05-10T20:23:46.185Z,101369.66
2023-05-10T20:29:09.396Z,101360.34
2023-05-10T20:34:29.803Z,101374.84
2023-05-10T20:39:50.536Z,101373.13
2023-05-10T20:45:11.342Z,101373.97
2023-05-10T20:50:32.245Z,101365.44
2023-05-10T20:55:53.088Z,101379.94
2023-05-10T21:01:14.168Z,101393.59
2023-05-10T21:06:35.131Z,101390.16
2023-05-10T21:11:55.867Z,101385.06
2023-05-10T21:17:18.762Z,101392.75
2023-05-10T21:22:40.528Z,101403.00
2023-05-10T21:28:01.253Z,101405.56
2023-05-10T21:33:21.718Z,101392.81
2023-05-10T21:38:44.410Z,101396.19
2023-05-10T21:44:05.135Z,101399.59
2023-05-10T21:49:26.192Z,101403.03
2023-05-10T21:54:47.009Z,101405.56
2023-05-10T22:00:08.221Z,101398.75
2023-05-10T22:05:28.820Z,101413.28
2023-05-10T22:10:49.157Z,101412.44
2023-05-10T22:16:09.911Z,101420.94
2023-05-10T22:21:30.636Z,101420.97
2023-05-10T22:26:54.052Z,101420.94
2023-05-10T22:32:15.111Z,101415.84
2023-05-10T22:37:35.775Z,101426.91
2023-05-10T22:42:56.801Z,101428.63
2023-05-10T22:48:17.383Z,101426.06
2023-05-10T22:53:37.863Z,101430.31
2023-05-10T22:58:58.699Z,101435.44
2023-05-10T23:04:19.722Z,101433.75
2023-05-10T23:09:40.384Z,101438.00
2023-05-10T23:15:00.902Z,101451.63
2023-05-10T23:20:21.953Z,101449.06
2023-05-10T23:25:42.900Z,101453.34
2023-05-10T23:31:03.302Z,101461.84
2023-05-10T23:36:23.662Z,101455.03
2023-05-10T23:41:44.833Z,101450.78
2023-05-10T23:47:06.088Z,101454.16
2023-05-10T23:52:26.823Z,101459.31
2023-05-10T23:57:47.524Z,101472.06
